createdAt,value
2017-08-01T00:00:09.876Z,95908.99
2017-08-01T00:02:37.619Z,95908.22
2017-08-01T00:05:05.157Z,95906.38
2017-08-01T00:07:32.727Z,95905.77
2017-08-01T00:10:00.273Z,95905.21
2017-08-01T00:12:28.702Z,95900.46
2017-08-01T00:14:56.311Z,95906.00
2017-08-01T00:17:23.894Z,95912.15
2017-08-01T00:19:51.657Z,95911.67
2017-08-01T00:22:19.309Z,95902.25
2017-08-01T00:24:46.933Z,95917.17
2017-08-01T00:27:14.512Z,95915.01
2017-08-01T00:29:42.114Z,95911.86
2017-08-01T00:32:09.711Z,95913.47
2017-08-01T00:34:37.263Z,95911.47
2017-08-01T00:37:04.848Z,95914.41
2017-08-01T00:39:32.455Z,95913.94
2017-08-01T00:42:00.081Z,95910.63
2017-08-01T00:44:28.262Z,95913.78
2017-08-01T00:46:55.842Z,95917.41
2017-08-01T00:49:23.438Z,95914.56
2017-08-01T00:51:51.010Z,95916.19
2017-08-01T00:54:18.586Z,95915.00
2017-08-01T00:56:46.174Z,95914.27
2017-08-01T00:59:13.714Z,95918.36
2017-08-01T01:01:41.340Z,95921.71
2017-08-01T01:04:08.906Z,95925.98
2017-08-01T01:06:36.499Z,95926.01
2017-08-01T01:09:04.122Z,95928.11
2017-08-01T01:11:31.887Z,95932.54
2017-08-01T01:13:59.506Z,95926.54
2017-08-01T01:16:27.135Z,95924.20
2017-08-01T01:18:54.707Z,95930.03
2017-08-01T01:21:22.494Z,95933.03
2017-08-01T01:23:50.115Z,95932.55
2017-08-01T01:26:17.879Z,95936.23
2017-08-01T01:28:45.441Z,95926.30
2017-08-01T01:31:13.065Z,95936.33
2017-08-01T01:33:40.846Z,95935.27
2017-08-01T01:36:08.603Z,95928.77
2017-08-01T01:38:36.205Z,95930.08
2017-08-01T01:41:03.814Z,95933.48
2017-08-01T01:43:31.422Z,95933.27
2017-08-01T01:45:59.046Z,95931.48
2017-08-01T01:48:26.602Z,95935.60
2017-08-01T01:50:54.227Z,95935.16
2017-08-01T01:53:22.117Z,95937.95
2017-08-01T01:55:49.781Z,95930.48
2017-08-01T01:58:18.173Z,95935.14
2017-08-01T02:00:46.697Z,95944.13
2017-08-01T02:03:14.637Z,95946.05
2017-08-01T02:05:42.519Z,95945.59
2017-08-01T02:08:10.153Z,95940.39
2017-08-01T02:10:37.740Z,95946.58
2017-08-01T02:13:05.341Z,95934.41
2017-08-01T02:15:33.211Z,95941.30
2017-08-01T02:18:00.999Z,95938.52
2017-08-01T02:20:28.799Z,95943.70
2017-08-01T02:22:57.195Z,95953.23
2017-08-01T02:25:24.999Z,95948.90
2017-08-01T02:27:52.643Z,95945.91
2017-08-01T02:30:20.431Z,95946.41
2017-08-01T02:32:48.005Z,95945.47
2017-08-01T02:35:15.559Z,95939.91
2017-08-01T02:37:43.175Z,95950.56
2017-08-01T02:40:10.945Z,95947.89
2017-08-01T02:42:38.575Z,95946.36
2017-08-01T02:45:06.353Z,95946.66
2017-08-01T02:47:33.885Z,95941.20
2017-08-01T02:50:01.416Z,95942.31
2017-08-01T02:52:29.101Z,95947.73
2017-08-01T02:54:57.035Z,95950.70
2017-08-01T02:57:24.809Z,95936.77
2017-08-01T02:59:52.609Z,95941.58
2017-08-01T03:02:20.225Z,95945.45
2017-08-01T03:04:48.001Z,95941.30
2017-08-01T03:07:15.572Z,95938.28
2017-08-01T03:09:43.197Z,95945.16
2017-08-01T03:12:10.823Z,95947.06
2017-08-01T03:14:38.430Z,95940.96
2017-08-01T03:17:06.026Z,95949.23
2017-08-01T03:19:33.595Z,95955.11
2017-08-01T03:22:01.393Z,95957.12
2017-08-01T03:24:29.001Z,95960.75
2017-08-01T03:26:56.786Z,95967.03
2017-08-01T03:29:24.378Z,95963.73
2017-08-01T03:31:51.989Z,95959.84
2017-08-01T03:34:19.796Z,95959.39
2017-08-01T03:36:47.357Z,95958.88
2017-08-01T03:39:15.745Z,95959.73
2017-08-01T03:41:43.332Z,95963.92
2017-08-01T03:44:10.921Z,95969.13
2017-08-01T03:46:38.504Z,95971.71
2017-08-01T03:49:06.088Z,95968.39
2017-08-01T03:51:33.631Z,95963.48
2017-08-01T03:54:01.215Z,95960.90
2017-08-01T03:56:28.830Z,95969.31
2017-08-01T03:58:56.568Z,95965.83
2017-08-01T04:01:24.170Z,95972.11
2017-08-01T04:03:51.771Z,95978.73
2017-08-01T04:06:19.306Z,95977.84
2017-08-01T04:08:46.922Z,95979.78
2017-08-01T04:11:14.497Z,95982.92
2017-08-01T04:13:42.074Z,95990.88
2017-08-01T04:16:09.644Z,95982.73
2017-08-01T04:18:37.198Z,95997.75
2017-08-01T04:21:05.181Z,95999.66
2017-08-01T04:23:32.794Z,96006.27
2017-08-01T04:26:00.422Z,95999.24
2017-08-01T04:28:28.003Z,96001.66
2017-08-01T04:30:55.680Z,96003.45
2017-08-01T04:33:25.325Z,95998.45
2017-08-01T04:35:55.454Z,95996.62
2017-08-01T04:38:23.134Z,96000.79
2017-08-01T04:40:50.805Z,96001.29
2017-08-01T04:43:18.446Z,96005.95
2017-08-01T04:45:46.131Z,96008.36
2017-08-01T04:48:14.374Z,96013.75
2017-08-01T04:50:43.603Z,96010.47
2017-08-01T04:53:11.221Z,96008.92
2017-08-01T04:55:38.975Z,96014.97
2017-08-01T04:58:06.829Z,96009.16
2017-08-01T05:00:34.409Z,96013.05
2017-08-01T05:03:07.174Z,96011.11
2017-08-01T05:05:34.745Z,96018.27
2017-08-01T05:08:02.314Z,96023.69
2017-08-01T05:10:29.876Z,96024.28
2017-08-01T05:12:57.443Z,96029.66
2017-08-01T05:15:25.052Z,96024.55
2017-08-01T05:17:52.826Z,96024.23
2017-08-01T05:20:21.151Z,96025.89
2017-08-01T05:22:48.681Z,96028.30
2017-08-01T05:25:16.255Z,96032.69
2017-08-01T05:27:43.816Z,96038.86
2017-08-01T05:30:11.500Z,96039.40
2017-08-01T05:32:39.162Z,96033.61
2017-08-01T05:35:06.961Z,96032.20
2017-08-01T05:37:34.743Z,96036.55
2017-08-01T05:40:02.287Z,96033.86
2017-08-01T05:42:29.899Z,96036.44
2017-08-01T05:44:57.532Z,96038.21
2017-08-01T05:47:25.391Z,96036.45
2017-08-01T05:49:53.137Z,96036.03
2017-08-01T05:52:20.702Z,96051.58
2017-08-01T05:54:48.318Z,96039.40
2017-08-01T05:57:15.863Z,96046.09
2017-08-01T05:59:43.448Z,96049.42
2017-08-01T06:02:11.010Z,96030.28
2017-08-01T06:04:38.564Z,96033.00
2017-08-01T06:07:06.125Z,96035.10
2017-08-01T06:09:33.738Z,96031.48
2017-08-01T06:12:01.282Z,96030.92
2017-08-01T06:14:28.896Z,96036.13
2017-08-01T06:16:56.524Z,96037.50
2017-08-01T06:19:24.085Z,96030.39
2017-08-01T06:21:51.940Z,96026.62
2017-08-01T06:24:19.586Z,96031.60
2017-08-01T06:26:47.236Z,96035.05
2017-08-01T06:29:14.819Z,96033.92
2017-08-01T06:31:42.406Z,96034.58
2017-08-01T06:34:09.939Z,96026.09
2017-08-01T06:36:37.510Z,96033.50
2017-08-01T06:39:05.143Z,96021.73
2017-08-01T06:41:32.691Z,96026.28
2017-08-01T06:44:00.424Z,96032.16
2017-08-01T06:46:28.020Z,96033.30
2017-08-01T06:48:55.776Z,96034.50
2017-08-01T06:51:24.104Z,96026.25
2017-08-01T06:53:51.682Z,96028.73
2017-08-01T06:56:19.238Z,96027.73
2017-08-01T06:58:47.055Z,96027.00
2017-08-01T07:01:14.671Z,96030.30
2017-08-01T07:03:42.185Z,96020.31
2017-08-01T07:06:09.731Z,96017.41
2017-08-01T07:08:37.305Z,96013.09
2017-08-01T07:11:04.847Z,96018.25
2017-08-01T07:13:32.385Z,96019.37
2017-08-01T07:15:59.974Z,96024.59
2017-08-01T07:18:27.516Z,96035.44
2017-08-01T07:20:55.085Z,96028.83
2017-08-01T07:23:22.720Z,96022.12
2017-08-01T07:25:50.269Z,96023.59
2017-08-01T07:28:17.866Z,96025.46
2017-08-01T07:30:45.475Z,96027.49
2017-08-01T07:33:13.066Z,96023.48
2017-08-01T07:35:40.635Z,96037.39
2017-08-01T07:38:08.202Z,96027.88
2017-08-01T07:40:35.942Z,96027.12
2017-08-01T07:43:03.526Z,96036.36
2017-08-01T07:45:31.149Z,96033.73
2017-08-01T07:47:58.709Z,96035.59
2017-08-01T07:50:26.263Z,96032.54
2017-08-01T07:52:53.877Z,96025.72
2017-08-01T07:55:21.621Z,96036.25
2017-08-01T07:57:49.174Z,96034.16
2017-08-01T08:00:16.825Z,96028.38
2017-08-01T08:02:44.384Z,96031.24
2017-08-01T08:05:11.943Z,96029.98
2017-08-01T08:07:39.540Z,96027.40
2017-08-01T08:10:07.116Z,96016.67
2017-08-01T08:12:34.722Z,96036.36
2017-08-01T08:15:02.318Z,96031.59
2017-08-01T08:17:29.875Z,96031.84
2017-08-01T08:19:57.615Z,96040.08
2017-08-01T08:22:25.207Z,96029.08
2017-08-01T08:24:52.822Z,96017.69
2017-08-01T08:27:20.631Z,96026.94
2017-08-01T08:29:48.238Z,96032.65
2017-08-01T08:32:15.831Z,96023.72
2017-08-01T08:34:43.426Z,96019.05
2017-08-01T08:37:12.175Z,96014.43
2017-08-01T08:39:39.778Z,96023.96
2017-08-01T08:42:07.532Z,96025.34
2017-08-01T08:44:35.073Z,96022.70
2017-08-01T08:47:02.645Z,96021.38
2017-08-01T08:49:30.244Z,96019.27
2017-08-01T08:51:57.877Z,96030.08
2017-08-01T08:54:25.512Z,96026.20
2017-08-01T08:56:53.099Z,96019.08
2017-08-01T08:59:21.161Z,96014.18
2017-08-01T09:01:48.755Z,96014.48
2017-08-01T09:04:16.286Z,96017.00
2017-08-01T09:06:43.836Z,96006.70
2017-08-01T09:09:11.439Z,96004.86
2017-08-01T09:11:39.040Z,96003.70
2017-08-01T09:14:06.967Z,96017.45
2017-08-01T09:16:34.553Z,96020.99
2017-08-01T09:19:02.097Z,96011.30
2017-08-01T09:21:29.913Z,96008.98
2017-08-01T09:23:58.423Z,95999.80
2017-08-01T09:26:26.050Z,96001.13
2017-08-01T09:28:53.676Z,96004.67
2017-08-01T09:31:21.273Z,95998.87
2017-08-01T09:33:48.891Z,95999.80
2017-08-01T09:36:16.652Z,95996.62
2017-08-01T09:38:44.240Z,95988.03
2017-08-01T09:41:11.824Z,95996.34
2017-08-01T09:43:39.376Z,95993.90
2017-08-01T09:46:07.884Z,96005.66
2017-08-01T09:48:36.102Z,95998.84
2017-08-01T09:51:04.003Z,96010.73
2017-08-01T09:53:31.867Z,95999.79
2017-08-01T09:56:00.344Z,96000.76
2017-08-01T09:58:28.730Z,95991.25
2017-08-01T10:00:56.365Z,95985.02
2017-08-01T10:03:23.927Z,95990.69
2017-08-01T10:05:52.463Z,95984.50
2017-08-01T10:08:20.584Z,95982.63
2017-08-01T10:10:48.170Z,95994.53
2017-08-01T10:13:15.719Z,95984.89
2017-08-01T10:15:43.366Z,95983.55
2017-08-01T10:18:11.286Z,95980.77
2017-08-01T10:20:38.880Z,95986.33
2017-08-01T10:23:06.502Z,95983.25
2017-08-01T10:25:34.179Z,95965.49
2017-08-01T10:28:01.751Z,95964.84
2017-08-01T10:30:29.549Z,95964.45
2017-08-01T10:32:58.901Z,95958.16
2017-08-01T10:35:26.528Z,95959.80
2017-08-01T10:37:54.177Z,95971.06
2017-08-01T10:40:21.808Z,95967.38
2017-08-01T10:42:49.627Z,95958.87
2017-08-01T10:45:18.170Z,95963.36
2017-08-01T10:47:45.710Z,95956.25
2017-08-01T10:50:13.331Z,95952.43
2017-08-01T10:52:41.136Z,95954.45
2017-08-01T10:55:08.719Z,95946.93
2017-08-01T10:57:36.483Z,95953.36
2017-08-01T11:00:11.437Z,95946.23
2017-08-01T11:02:39.774Z,95938.37
2017-08-01T11:05:07.423Z,95930.55
2017-08-01T11:07:35.025Z,95930.75
2017-08-01T11:10:02.583Z,95929.63
2017-08-01T11:12:30.139Z,95931.34
2017-08-01T11:14:57.713Z,95929.86
2017-08-01T11:17:25.513Z,95935.30
2017-08-01T11:19:53.136Z,95934.59
2017-08-01T11:22:21.345Z,95925.67
2017-08-01T11:24:49.878Z,95926.14
2017-08-01T11:27:17.500Z,95922.66
2017-08-01T11:29:46.038Z,95919.56
2017-08-01T11:32:13.675Z,95917.00
2017-08-01T11:34:41.429Z,95905.09
2017-08-01T11:37:09.180Z,95906.31
2017-08-01T11:39:36.995Z,95907.09
2017-08-01T11:42:04.603Z,95908.80
2017-08-01T11:44:32.373Z,95908.28
2017-08-01T11:46:59.961Z,95906.09
2017-08-01T11:49:27.575Z,95907.00
2017-08-01T11:51:55.331Z,95900.75
2017-08-01T11:54:22.942Z,95909.13
2017-08-01T11:56:50.686Z,95899.41
2017-08-01T11:59:18.419Z,95908.55
2017-08-01T12:01:46.013Z,95897.55
2017-08-01T12:04:13.530Z,95891.98
2017-08-01T12:06:41.351Z,95894.50
2017-08-01T12:09:08.952Z,95894.77
2017-08-01T12:11:36.506Z,95895.52
2017-08-01T12:14:04.077Z,95888.55
2017-08-01T12:16:31.696Z,95893.33
2017-08-01T12:18:59.322Z,95882.31
2017-08-01T12:21:27.092Z,95886.39
2017-08-01T12:23:54.698Z,95876.91
2017-08-01T12:26:22.435Z,95886.94
2017-08-01T12:28:50.039Z,95888.48
2017-08-01T12:31:17.605Z,95882.31
2017-08-01T12:33:45.227Z,95883.77
2017-08-01T12:36:12.787Z,95882.69
2017-08-01T12:38:40.403Z,95877.01
2017-08-01T12:41:07.954Z,95882.39
2017-08-01T12:43:35.519Z,95878.42
2017-08-01T12:46:03.316Z,95886.06
2017-08-01T12:48:31.414Z,95890.77
2017-08-01T12:50:59.039Z,95877.33
2017-08-01T12:53:26.650Z,95880.13
2017-08-01T12:55:54.263Z,95882.92
2017-08-01T12:58:22.074Z,95879.06
2017-08-01T13:00:50.053Z,95877.55
2017-08-01T13:03:17.800Z,95873.52
2017-08-01T13:05:45.341Z,95878.60
2017-08-01T13:08:13.696Z,95874.00
2017-08-01T13:10:41.464Z,95877.31
2017-08-01T13:13:09.025Z,95872.62
2017-08-01T13:15:36.603Z,95875.14
2017-08-01T13:18:04.261Z,95878.67
2017-08-01T13:20:31.819Z,95873.30
2017-08-01T13:22:59.399Z,95871.48
2017-08-01T13:25:26.986Z,95874.55
2017-08-01T13:27:54.788Z,95872.69
2017-08-01T13:30:22.523Z,95870.30
2017-08-01T13:32:50.840Z,95866.73
2017-08-01T13:35:18.408Z,95869.42
2017-08-01T13:37:45.982Z,95871.09
2017-08-01T13:40:13.578Z,95871.30
2017-08-01T13:42:41.472Z,95867.91
2017-08-01T13:45:09.052Z,95864.02
2017-08-01T13:47:36.863Z,95868.52
2017-08-01T13:50:04.441Z,95869.25
2017-08-01T13:52:32.020Z,95874.89
2017-08-01T13:54:59.790Z,95866.94
2017-08-01T13:57:27.417Z,95871.55
2017-08-01T13:59:54.981Z,95865.86
2017-08-01T14:02:22.554Z,95861.34
2017-08-01T14:04:50.131Z,95866.60
2017-08-01T14:07:17.771Z,95871.88
2017-08-01T14:09:45.549Z,95873.20
2017-08-01T14:12:13.171Z,95864.48
2017-08-01T14:14:40.979Z,95872.30
2017-08-01T14:17:09.339Z,95879.57
2017-08-01T14:19:36.951Z,95881.20
2017-08-01T14:22:04.823Z,95883.38
2017-08-01T14:24:32.666Z,95879.34
2017-08-01T14:27:00.206Z,95888.34
2017-08-01T14:29:27.762Z,95884.28
2017-08-01T14:31:55.342Z,95882.21
2017-08-01T14:34:23.094Z,95879.14
2017-08-01T14:36:50.686Z,95885.91
2017-08-01T14:39:18.307Z,95885.97
2017-08-01T14:41:46.129Z,95882.27
2017-08-01T14:44:13.739Z,95871.29
2017-08-01T14:46:41.383Z,95875.80
2017-08-01T14:49:08.927Z,95873.33
2017-08-01T14:51:36.503Z,95876.34
2017-08-01T14:54:04.097Z,95869.86
2017-08-01T14:56:31.643Z,95874.01
2017-08-01T14:58:59.210Z,95872.56
2017-08-01T15:01:26.806Z,95877.83
2017-08-01T15:03:54.369Z,95873.58
2017-08-01T15:06:21.961Z,95877.33
2017-08-01T15:08:49.586Z,95877.61
2017-08-01T15:11:17.118Z,95879.69
2017-08-01T15:13:44.765Z,95874.00
2017-08-01T15:16:12.348Z,95874.02
2017-08-01T15:18:39.955Z,95863.39
2017-08-01T15:21:07.572Z,95865.89
2017-08-01T15:23:35.150Z,95876.03
2017-08-01T15:26:02.670Z,95868.75
2017-08-01T15:28:30.185Z,95866.37
2017-08-01T15:30:57.783Z,95867.22
2017-08-01T15:33:25.334Z,95875.45
2017-08-01T15:35:52.943Z,95867.40
2017-08-01T15:38:20.520Z,95869.34
2017-08-01T15:40:48.071Z,95877.19
2017-08-01T15:43:15.637Z,95875.77
2017-08-01T15:45:43.255Z,95872.34
2017-08-01T15:48:10.798Z,95869.70
2017-08-01T15:50:38.525Z,95877.00
2017-08-01T15:53:06.131Z,95871.72
2017-08-01T15:55:33.872Z,95873.80
2017-08-01T15:58:01.461Z,95876.73
2017-08-01T16:00:29.050Z,95877.79
2017-08-01T16:02:56.589Z,95876.51
2017-08-01T16:05:24.399Z,95873.86
2017-08-01T16:07:51.971Z,95878.09
2017-08-01T16:10:19.584Z,95876.49
2017-08-01T16:12:47.134Z,95881.48
2017-08-01T16:15:14.755Z,95872.73
2017-08-01T16:17:42.383Z,95871.11
2017-08-01T16:20:10.131Z,95877.06
2017-08-01T16:22:37.719Z,95871.50
2017-08-01T16:25:05.256Z,95869.14
2017-08-01T16:27:32.880Z,95874.86
2017-08-01T16:30:00.468Z,95873.12
2017-08-01T16:32:28.050Z,95874.41
2017-08-01T16:34:55.647Z,95871.38
2017-08-01T16:37:23.429Z,95875.70
2017-08-01T16:39:51.013Z,95879.69
2017-08-01T16:42:18.643Z,95883.70
2017-08-01T16:44:46.175Z,95885.72
2017-08-01T16:47:13.788Z,95892.66
2017-08-01T16:49:42.750Z,95888.33
2017-08-01T16:52:10.306Z,95893.57
2017-08-01T16:54:37.918Z,95893.17
2017-08-01T16:57:05.430Z,95900.66
2017-08-01T16:59:32.975Z,95905.30
2017-08-01T17:02:00.534Z,95904.04
2017-08-01T17:04:28.473Z,95902.45
2017-08-01T17:06:57.311Z,95903.13
2017-08-01T17:09:26.128Z,95907.48
2017-08-01T17:11:54.667Z,95908.12
2017-08-01T17:14:23.300Z,95911.47
2017-08-01T17:16:52.807Z,95910.67
2017-08-01T17:19:21.425Z,95911.69
2017-08-01T17:21:50.242Z,95908.40
2017-08-01T17:24:19.176Z,95904.80
2017-08-01T17:26:48.096Z,95907.84
2017-08-01T17:29:15.967Z,95914.33
2017-08-01T17:31:45.641Z,95918.80
2017-08-01T17:34:14.936Z,95921.66
2017-08-01T17:36:43.952Z,95922.21
2017-08-01T17:39:12.965Z,95931.09
2017-08-01T17:41:41.697Z,95935.17
2017-08-01T17:44:11.979Z,95932.28
2017-08-01T17:46:41.024Z,95933.79
2017-08-01T17:49:09.807Z,95942.06
2017-08-01T17:51:39.813Z,95938.58
2017-08-01T17:54:08.798Z,95939.77
2017-08-01T17:56:36.710Z,95948.54
2017-08-01T17:59:04.316Z,95946.84
2017-08-01T18:01:31.984Z,95953.70
2017-08-01T18:03:59.795Z,95960.12
2017-08-01T18:06:33.991Z,95958.72
2017-08-01T18:09:02.795Z,95959.11
2017-08-01T18:11:31.594Z,95962.89
2017-08-01T18:14:01.815Z,95972.55
2017-08-01T18:16:30.276Z,95966.41
2017-08-01T18:18:58.051Z,95984.66
2017-08-01T18:21:25.642Z,95984.98
2017-08-01T18:23:53.247Z,95992.34
2017-08-01T18:26:20.812Z,95992.50
2017-08-01T18:28:48.597Z,95995.45
2017-08-01T18:31:16.169Z,96003.92
2017-08-01T18:33:43.956Z,96001.66
2017-08-01T18:36:11.740Z,96004.42
2017-08-01T18:38:40.059Z,96007.84
2017-08-01T18:41:07.680Z,96009.75
2017-08-01T18:43:35.238Z,96010.03
2017-08-01T18:46:02.918Z,96019.76
2017-08-01T18:48:30.497Z,96019.41
2017-08-01T18:50:58.259Z,96013.23
2017-08-01T18:53:25.898Z,96018.13
2017-08-01T18:55:53.697Z,96003.88
2017-08-01T18:58:21.489Z,96018.66
2017-08-01T19:00:49.115Z,96011.48
2017-08-01T19:03:16.709Z,96013.14
2017-08-01T19:05:44.991Z,96015.48
2017-08-01T19:08:13.397Z,96018.42
2017-08-01T19:10:41.250Z,96018.94
2017-08-01T19:13:08.813Z,96019.53
2017-08-01T19:15:36.394Z,96014.15
2017-08-01T19:18:04.204Z,96012.53
2017-08-01T19:20:32.025Z,96014.58
2017-08-01T19:22:59.666Z,96018.53
2017-08-01T19:25:27.172Z,96010.50
2017-08-01T19:27:54.678Z,96003.42
2017-08-01T19:30:22.413Z,96005.66
2017-08-01T19:32:49.956Z,96012.98
2017-08-01T19:35:17.551Z,96017.86
2017-08-01T19:37:45.175Z,96012.81
2017-08-01T19:40:12.719Z,96008.56
2017-08-01T19:42:40.258Z,96010.31
2017-08-01T19:45:08.122Z,96006.72
2017-08-01T19:47:35.671Z,96010.53
2017-08-01T19:50:03.254Z,96007.73
2017-08-01T19:52:30.836Z,96009.72
2017-08-01T19:54:58.363Z,96010.44
2017-08-01T19:57:26.109Z,96005.83
2017-08-01T19:59:53.694Z,96010.36
2017-08-01T20:02:21.266Z,96019.40
2017-08-01T20:04:48.845Z,96013.89
2017-08-01T20:07:16.398Z,96015.11
2017-08-01T20:09:44.863Z,96016.44
2017-08-01T20:12:12.626Z,96019.80
2017-08-01T20:14:40.379Z,96024.50
2017-08-01T20:17:07.942Z,96019.25
2017-08-01T20:19:35.521Z,96014.69
2017-08-01T20:22:04.317Z,96016.17
2017-08-01T20:24:32.806Z,96016.57
2017-08-01T20:27:01.930Z,96014.28
2017-08-01T20:29:29.810Z,96018.90
2017-08-01T20:31:57.538Z,96015.10
2017-08-01T20:34:25.171Z,96022.14
2017-08-01T20:36:52.751Z,96010.88
2017-08-01T20:39:20.460Z,96008.92
2017-08-01T20:41:48.014Z,96014.80
2017-08-01T20:44:15.607Z,96017.98
2017-08-01T20:46:43.383Z,96014.08
2017-08-01T20:49:10.958Z,96008.38
2017-08-01T20:51:38.538Z,96013.36
2017-08-01T20:54:06.133Z,96013.02
2017-08-01T20:56:33.751Z,96011.92
2017-08-01T20:59:01.333Z,96001.47
2017-08-01T21:01:28.948Z,96005.63
2017-08-01T21:03:56.784Z,96001.55
2017-08-01T21:06:24.387Z,96003.00
2017-08-01T21:08:52.030Z,96002.80
2017-08-01T21:11:19.621Z,95998.47
2017-08-01T21:13:47.174Z,96001.45
2017-08-01T21:16:14.779Z,95993.28
2017-08-01T21:18:42.496Z,96001.13
2017-08-01T21:21:10.215Z,96002.69
2017-08-01T21:23:37.795Z,96005.59
2017-08-01T21:26:05.431Z,96006.39
2017-08-01T21:28:32.978Z,95997.89
2017-08-01T21:31:00.618Z,96009.52
2017-08-01T21:33:28.180Z,96006.68
2017-08-01T21:35:55.990Z,96001.56
2017-08-01T21:38:23.572Z,96015.56
2017-08-01T21:40:51.164Z,96021.03
2017-08-01T21:43:18.734Z,96025.65
2017-08-01T21:45:46.365Z,96022.98
2017-08-01T21:48:13.959Z,96017.39
2017-08-01T21:50:41.555Z,96015.08
2017-08-01T21:53:09.117Z,96013.20
2017-08-01T21:55:40.578Z,96012.95
2017-08-01T21:58:08.488Z,96012.27
2017-08-01T22:00:36.171Z,96001.34
2017-08-01T22:03:04.666Z,95999.75
2017-08-01T22:05:32.277Z,96005.92
2017-08-01T22:08:00.696Z,96007.41
2017-08-01T22:10:28.307Z,96009.84
2017-08-01T22:12:55.874Z,96009.96
2017-08-01T22:15:23.493Z,96003.89
2017-08-01T22:17:51.058Z,95999.97
2017-08-01T22:20:18.758Z,95988.26
2017-08-01T22:22:46.385Z,95996.59
2017-08-01T22:25:13.995Z,95993.06
2017-08-01T22:27:42.551Z,95991.50
2017-08-01T22:30:10.272Z,96000.62
2017-08-01T22:32:37.860Z,95996.05
2017-08-01T22:35:05.420Z,96001.78
2017-08-01T22:37:33.038Z,95998.56
2017-08-01T22:40:00.650Z,95989.80
2017-08-01T22:42:28.426Z,95997.24
2017-08-01T22:44:56.057Z,95988.53
2017-08-01T22:47:23.694Z,95985.76
2017-08-01T22:49:51.286Z,95985.61
2017-08-01T22:52:18.943Z,95994.48
2017-08-01T22:54:46.591Z,95992.33
2017-08-01T22:57:14.252Z,95987.42
2017-08-01T22:59:41.899Z,95993.03
2017-08-01T23:02:09.531Z,95997.09
2017-08-01T23:04:37.167Z,95984.73
2017-08-01T23:07:04.795Z,95993.78
2017-08-01T23:09:32.402Z,95990.27
2017-08-01T23:12:00.023Z,95985.86
2017-08-01T23:14:27.939Z,95980.95
2017-08-01T23:16:55.535Z,95991.56
2017-08-01T23:19:23.734Z,95985.61
2017-08-01T23:21:51.311Z,95984.77
2017-08-01T23:24:18.929Z,95977.20
2017-08-01T23:26:46.536Z,95980.04
2017-08-01T23:29:14.123Z,95982.30
2017-08-01T23:31:41.725Z,95982.06
2017-08-01T23:34:09.318Z,95982.78
2017-08-01T23:36:36.918Z,95986.69
2017-08-01T23:39:04.541Z,95989.36
2017-08-01T23:41:32.112Z,95979.83
2017-08-01T23:43:59.770Z,95989.08
2017-08-01T23:46:27.441Z,95988.20
2017-08-01T23:48:55.052Z,95980.88
2017-08-01T23:51:22.687Z,95988.30
2017-08-01T23:53:51.148Z,95993.28
2017-08-01T23:56:19.569Z,95991.49
2017-08-01T23:58:47.155Z,95991.13
